sensor_id;sensor_type;location;lat;lon;timestamp;pressure;altitude;pressure_sealevel;temperature;humidity
35704;BME280;21820;51.112;13.762;2022-12-29T00:01:31;98813.81;;;19.10;66.11
35704;BME280;21820;51.112;13.762;2022-12-29T00:03:56;98812.84;;;19.11;66.50
35704;BME280;21820;51.112;13.762;2022-12-29T00:06:22;98800.09;;;19.08;65.99
35704;BME280;21820;51.112;13.762;2022-12-29T00:08:47;98807.28;;;18.97;65.26
35704;BME280;21820;51.112;13.762;2022-12-29T00:11:15;98809.34;;;18.93;64.61
35704;BME280;21820;51.112;13.762;2022-12-29T00:13:41;98803.44;;;18.91;65.32
35704;BME280;21820;51.112;13.762;2022-12-29T00:16:25;98804.13;;;18.93;64.77
35704;BME280;21820;51.112;13.762;2022-12-29T00:18:51;98798.09;;;18.93;64.42
35704;BME280;21820;51.112;13.762;2022-12-29T00:21:19;98796.19;;;18.95;64.28
35704;BME280;21820;51.112;13.762;2022-12-29T00:24:03;98806.56;;;19.04;63.88
35704;BME280;21820;51.112;13.762;2022-12-29T00:26:56;98806.00;;;19.10;64.05
35704;BME280;21820;51.112;13.762;2022-12-29T00:29:41;98792.69;;;19.13;63.38
35704;BME280;21820;51.112;13.762;2022-12-29T00:32:25;98784.59;;;19.16;63.31
35704;BME280;21820;51.112;13.762;2022-12-29T00:35:11;98762.09;;;19.15;63.34
35704;BME280;21820;51.112;13.762;2022-12-29T00:37:41;98771.69;;;19.15;63.18
35704;BME280;21820;51.112;13.762;2022-12-29T00:40:26;98773.09;;;19.09;64.17
35704;BME280;21820;51.112;13.762;2022-12-29T00:43:10;98771.75;;;19.05;63.73
35704;BME280;21820;51.112;13.762;2022-12-29T00:45:53;98775.44;;;19.03;64.99
35704;BME280;21820;51.112;13.762;2022-12-29T00:48:19;98772.84;;;19.03;64.37
35704;BME280;21820;51.112;13.762;2022-12-29T00:51:05;98768.91;;;18.99;65.07
35704;BME280;21820;51.112;13.762;2022-12-29T00:53:30;98753.38;;;18.97;64.75
35704;BME280;21820;51.112;13.762;2022-12-29T00:55:56;98761.09;;;18.99;64.44
35704;BME280;21820;51.112;13.762;2022-12-29T00:58:21;98764.91;;;18.95;65.14
35704;BME280;21820;51.112;13.762;2022-12-29T01:00:46;98756.97;;;18.96;64.99
35704;BME280;21820;51.112;13.762;2022-12-29T01:03:12;98760.53;;;18.95;66.08
35704;BME280;21820;51.112;13.762;2022-12-29T01:05:37;98763.28;;;18.94;65.72
35704;BME280;21820;51.112;13.762;2022-12-29T01:08:03;98749.34;;;18.85;65.47
35704;BME280;21820;51.112;13.762;2022-12-29T01:10:28;98765.06;;;18.93;66.48
35704;BME280;21820;51.112;13.762;2022-12-29T01:12:54;98766.56;;;18.96;66.47
35704;BME280;21820;51.112;13.762;2022-12-29T01:15:19;98772.31;;;18.99;66.89
35704;BME280;21820;51.112;13.762;2022-12-29T01:17:45;98774.50;;;19.04;66.36
35704;BME280;21820;51.112;13.762;2022-12-29T01:20:11;98752.72;;;18.95;66.28
35704;BME280;21820;51.112;13.762;2022-12-29T01:22:36;98761.31;;;19.05;66.24
35704;BME280;21820;51.112;13.762;2022-12-29T01:25:03;98753.38;;;18.97;66.21
35704;BME280;21820;51.112;13.762;2022-12-29T01:27:28;98769.78;;;19.07;66.35
35704;BME280;21820;51.112;13.762;2022-12-29T01:29:53;98774.59;;;19.02;65.48
35704;BME280;21820;51.112;13.762;2022-12-29T01:32:19;98764.88;;;19.04;66.01
35704;BME280;21820;51.112;13.762;2022-12-29T01:34:44;98768.47;;;19.03;66.42
35704;BME280;21820;51.112;13.762;2022-12-29T01:37:10;98766.53;;;19.05;66.45
35704;BME280;21820;51.112;13.762;2022-12-29T01:39:35;98765.41;;;19.08;66.37
35704;BME280;21820;51.112;13.762;2022-12-29T01:42:01;98769.00;;;19.07;66.31
35704;BME280;21820;51.112;13.762;2022-12-29T01:47:50;98754.47;;;19.04;67.34
35704;BME280;21820;51.112;13.762;2022-12-29T01:50:25;98757.75;;;19.06;66.36
35704;BME280;21820;51.112;13.762;2022-12-29T01:53:17;98747.47;;;19.05;66.75
35704;BME280;21820;51.112;13.762;2022-12-29T01:55:50;98742.25;;;19.05;66.87
35704;BME280;21820;51.112;13.762;2022-12-29T01:58:19;98749.25;;;19.04;66.81
35704;BME280;21820;51.112;13.762;2022-12-29T02:00:45;98742.41;;;19.03;66.22
35704;BME280;21820;51.112;13.762;2022-12-29T02:03:11;98738.97;;;19.03;66.18
35704;BME280;21820;51.112;13.762;2022-12-29T02:05:52;98742.69;;;19.00;66.69
35704;BME280;21820;51.112;13.762;2022-12-29T02:08:20;98741.22;;;18.88;66.31
35704;BME280;21820;51.112;13.762;2022-12-29T02:10:47;98742.22;;;18.87;64.94
35704;BME280;21820;51.112;13.762;2022-12-29T02:13:16;98734.00;;;18.82;66.64
35704;BME280;21820;51.112;13.762;2022-12-29T02:18:51;98729.59;;;18.83;66.82
35704;BME280;21820;51.112;13.762;2022-12-29T02:27:48;98717.22;;;18.94;64.86
35704;BME280;21820;51.112;13.762;2022-12-29T02:30:38;98720.19;;;18.99;64.60
35704;BME280;21820;51.112;13.762;2022-12-29T02:33:12;98721.88;;;19.00;63.53
35704;BME280;21820;51.112;13.762;2022-12-29T02:47:00;98713.97;;;18.92;64.66
35704;BME280;21820;51.112;13.762;2022-12-29T02:49:34;98719.16;;;18.92;65.03
35704;BME280;21820;51.112;13.762;2022-12-29T02:52:08;98722.72;;;18.91;65.91
35704;BME280;21820;51.112;13.762;2022-12-29T02:54:37;98719.16;;;18.92;65.32
35704;BME280;21820;51.112;13.762;2022-12-29T02:57:12;98705.75;;;18.87;65.79
35704;BME280;21820;51.112;13.762;2022-12-29T02:59:40;98719.44;;;18.89;65.26
35704;BME280;21820;51.112;13.762;2022-12-29T03:02:13;98716.16;;;18.87;66.04
35704;BME280;21820;51.112;13.762;2022-12-29T03:21:38;98695.81;;;19.00;67.12
35704;BME280;21820;51.112;13.762;2022-12-29T03:24:32;98697.44;;;19.01;66.14
35704;BME280;21820;51.112;13.762;2022-12-29T03:27:01;98693.22;;;19.00;66.14
35704;BME280;21820;51.112;13.762;2022-12-29T03:29:29;98690.88;;;18.97;65.70
35704;BME280;21820;51.112;13.762;2022-12-29T03:31:58;98690.75;;;18.99;66.06
35704;BME280;21820;51.112;13.762;2022-12-29T03:34:25;98682.25;;;18.97;65.93
35704;BME280;21820;51.112;13.762;2022-12-29T03:36:54;98658.88;;;18.87;66.46
35704;BME280;21820;51.112;13.762;2022-12-29T03:39:23;98682.13;;;18.98;66.33
35704;BME280;21820;51.112;13.762;2022-12-29T03:41:53;98684.03;;;18.96;66.84
35704;BME280;21820;51.112;13.762;2022-12-29T03:44:20;98679.34;;;19.00;66.53
35704;BME280;21820;51.112;13.762;2022-12-29T03:46:46;98676.59;;;19.01;66.74
35704;BME280;21820;51.112;13.762;2022-12-29T03:49:11;98670.41;;;19.02;66.85
35704;BME280;21820;51.112;13.762;2022-12-29T03:51:36;98663.44;;;19.03;66.01
35704;BME280;21820;51.112;13.762;2022-12-29T03:54:02;98652.47;;;18.99;67.00
35704;BME280;21820;51.112;13.762;2022-12-29T03:56:28;98652.47;;;18.99;66.83
35704;BME280;21820;51.112;13.762;2022-12-29T03:58:53;98652.47;;;18.99;66.54
35704;BME280;21820;51.112;13.762;2022-12-29T04:01:19;98647.97;;;19.01;66.66
35704;BME280;21820;51.112;13.762;2022-12-29T04:03:44;98647.44;;;18.98;66.33
35704;BME280;21820;51.112;13.762;2022-12-29T04:06:09;98654.72;;;18.94;66.02
35704;BME280;21820;51.112;13.762;2022-12-29T04:08:35;98644.59;;;18.91;66.35
35704;BME280;21820;51.112;13.762;2022-12-29T04:11:00;98623.56;;;18.75;66.53
35704;BME280;21820;51.112;13.762;2022-12-29T04:13:25;98654.63;;;18.86;66.90
35704;BME280;21820;51.112;13.762;2022-12-29T04:15:51;98653.94;;;18.84;66.70
35704;BME280;21820;51.112;13.762;2022-12-29T04:18:16;98661.09;;;18.82;66.68
35704;BME280;21820;51.112;13.762;2022-12-29T04:20:41;98663.31;;;18.77;66.47
35704;BME280;21820;51.112;13.762;2022-12-29T04:23:26;98650.94;;;18.79;67.05
35704;BME280;21820;51.112;13.762;2022-12-29T04:25:52;98651.53;;;18.73;66.77
35704;BME280;21820;51.112;13.762;2022-12-29T04:28:18;98654.13;;;18.73;66.89
35704;BME280;21820;51.112;13.762;2022-12-29T04:30:44;98655.09;;;18.72;66.49
35704;BME280;21820;51.112;13.762;2022-12-29T04:33:09;98663.19;;;18.69;67.06
35704;BME280;21820;51.112;13.762;2022-12-29T04:35:34;98657.97;;;18.69;66.90
35704;BME280;21820;51.112;13.762;2022-12-29T04:38:00;98661.94;;;18.73;67.04
35704;BME280;21820;51.112;13.762;2022-12-29T04:40:25;98669.06;;;18.71;67.46
35704;BME280;21820;51.112;13.762;2022-12-29T04:42:50;98660.97;;;18.74;66.62
35704;BME280;21820;51.112;13.762;2022-12-29T04:45:16;98667.16;;;18.73;66.27
35704;BME280;21820;51.112;13.762;2022-12-29T04:47:42;98658.38;;;18.74;66.84
35704;BME280;21820;51.112;13.762;2022-12-29T04:50:07;98657.88;;;18.61;65.69
35704;BME280;21820;51.112;13.762;2022-12-29T04:52:33;98663.75;;;18.63;66.19
35704;BME280;21820;51.112;13.762;2022-12-29T04:54:58;98666.06;;;18.66;66.51
35704;BME280;21820;51.112;13.762;2022-12-29T04:57:24;98668.81;;;18.65;66.36
35704;BME280;21820;51.112;13.762;2022-12-29T04:59:49;98667.75;;;18.67;65.04
35704;BME280;21820;51.112;13.762;2022-12-29T05:02:15;98662.25;;;18.70;64.69
35704;BME280;21820;51.112;13.762;2022-12-29T05:04:41;98670.72;;;18.72;65.48
35704;BME280;21820;51.112;13.762;2022-12-29T05:07:07;98669.31;;;18.78;64.13
35704;BME280;21820;51.112;13.762;2022-12-29T05:09:32;98670.81;;;18.80;64.65
35704;BME280;21820;51.112;13.762;2022-12-29T05:11:58;98654.81;;;18.75;64.32
35704;BME280;21820;51.112;13.762;2022-12-29T05:14:23;98681.34;;;18.88;64.11
35704;BME280;21820;51.112;13.762;2022-12-29T05:16:49;98654.81;;;18.75;64.54
35704;BME280;21820;51.112;13.762;2022-12-29T05:19:14;98686.84;;;18.85;64.78
35704;BME280;21820;51.112;13.762;2022-12-29T05:21:39;98676.44;;;18.85;64.70
35704;BME280;21820;51.112;13.762;2022-12-29T05:24:05;98669.03;;;18.81;64.34
35704;BME280;21820;51.112;13.762;2022-12-29T05:26:30;98656.97;;;18.80;64.84
35704;BME280;21820;51.112;13.762;2022-12-29T05:28:56;98670.16;;;18.78;64.81
35704;BME280;21820;51.112;13.762;2022-12-29T05:31:21;98682.47;;;18.76;65.27
35704;BME280;21820;51.112;13.762;2022-12-29T05:33:46;98681.69;;;18.76;65.48
35704;BME280;21820;51.112;13.762;2022-12-29T05:36:12;98671.56;;;18.63;65.05
35704;BME280;21820;51.112;13.762;2022-12-29T05:38:38;98674.38;;;18.79;65.30
35704;BME280;21820;51.112;13.762;2022-12-29T05:41:03;98682.34;;;18.78;65.61
35704;BME280;21820;51.112;13.762;2022-12-29T05:43:28;98681.38;;;18.79;65.95
35704;BME280;21820;51.112;13.762;2022-12-29T05:45:54;98681.38;;;18.79;66.45
35704;BME280;21820;51.112;13.762;2022-12-29T05:48:20;98677.53;;;18.83;67.05
35704;BME280;21820;51.112;13.762;2022-12-29T05:50:50;98673.66;;;18.87;67.36
35704;BME280;21820;51.112;13.762;2022-12-29T05:53:16;98670.91;;;18.88;66.06
35704;BME280;21820;51.112;13.762;2022-12-29T05:55:42;98654.53;;;18.78;66.21
35704;BME280;21820;51.112;13.762;2022-12-29T05:58:08;98671.75;;;18.89;66.32
35704;BME280;21820;51.112;13.762;2022-12-29T06:00:34;98671.31;;;18.93;66.51
35704;BME280;21820;51.112;13.762;2022-12-29T06:02:59;98659.44;;;18.81;66.37
35704;BME280;21820;51.112;13.762;2022-12-29T06:05:24;98659.44;;;18.81;66.03
35704;BME280;21820;51.112;13.762;2022-12-29T06:07:50;98677.19;;;18.95;65.73
35704;BME280;21820;51.112;13.762;2022-12-29T06:10:16;98689.25;;;18.96;66.56
35704;BME280;21820;51.112;13.762;2022-12-29T06:12:41;98684.03;;;18.96;65.88
35704;BME280;21820;51.112;13.762;2022-12-29T06:15:07;98671.00;;;18.96;66.18
35704;BME280;21820;51.112;13.762;2022-12-29T06:17:32;98651.31;;;18.84;66.10
35704;BME280;21820;51.112;13.762;2022-12-29T06:19:58;98664.31;;;18.94;66.06
35704;BME280;21820;51.112;13.762;2022-12-29T06:22:23;98640.25;;;18.82;66.22
35704;BME280;21820;51.112;13.762;2022-12-29T06:24:49;98658.59;;;18.90;66.68
35704;BME280;21820;51.112;13.762;2022-12-29T06:27:14;98657.31;;;18.94;66.84
35704;BME280;21820;51.112;13.762;2022-12-29T06:29:40;98659.91;;;18.94;66.31
35704;BME280;21820;51.112;13.762;2022-12-29T06:32:06;98663.50;;;18.93;66.68
35704;BME280;21820;51.112;13.762;2022-12-29T06:34:31;98663.50;;;18.93;66.29
35704;BME280;21820;51.112;13.762;2022-12-29T06:36:57;98656.13;;;18.89;65.97
35704;BME280;21820;51.112;13.762;2022-12-29T06:39:22;98653.38;;;18.90;66.68
35704;BME280;21820;51.112;13.762;2022-12-29T06:41:47;98647.34;;;18.90;66.98
35704;BME280;21820;51.112;13.762;2022-12-29T06:44:13;98648.47;;;18.87;66.99
35704;BME280;21820;51.112;13.762;2022-12-29T06:46:38;98641.75;;;18.85;66.72
35704;BME280;21820;51.112;13.762;2022-12-29T06:49:03;98644.66;;;18.82;66.54
35704;BME280;21820;51.112;13.762;2022-12-29T06:51:29;98638.38;;;18.75;66.23
35704;BME280;21820;51.112;13.762;2022-12-29T06:53:54;98653.84;;;18.76;66.43
35704;BME280;21820;51.112;13.762;2022-12-29T06:56:19;98648.63;;;18.76;66.44
35704;BME280;21820;51.112;13.762;2022-12-29T06:58:45;98656.19;;;18.70;66.64
35704;BME280;21820;51.112;13.762;2022-12-29T07:01:10;98646.13;;;18.57;66.28
35704;BME280;21820;51.112;13.762;2022-12-29T07:03:35;98656.50;;;18.67;66.88
35704;BME280;21820;51.112;13.762;2022-12-29T07:06:01;98655.66;;;18.66;67.22
35704;BME280;21820;51.112;13.762;2022-12-29T07:08:26;98651.81;;;18.70;67.25
35704;BME280;21820;51.112;13.762;2022-12-29T07:10:52;98657.97;;;18.69;67.18
35704;BME280;21820;51.112;13.762;2022-12-29T07:13:17;98657.31;;;18.67;66.64
35704;BME280;21820;51.112;13.762;2022-12-29T07:15:42;98652.13;;;18.58;66.90
35704;BME280;21820;51.112;13.762;2022-12-29T07:18:08;98664.16;;;18.68;66.72
35704;BME280;21820;51.112;13.762;2022-12-29T07:20:33;98671.81;;;18.70;67.03
35704;BME280;21820;51.112;13.762;2022-12-29T07:22:58;98673.47;;;18.71;66.72
35704;BME280;21820;51.112;13.762;2022-12-29T07:25:24;98672.34;;;18.73;67.44
35704;BME280;21820;51.112;13.762;2022-12-29T07:27:49;98670.72;;;18.72;66.96
35704;BME280;21820;51.112;13.762;2022-12-29T07:30:15;98680.03;;;18.75;66.96
35704;BME280;21820;51.112;13.762;2022-12-29T07:32:41;98682.47;;;18.76;67.04
35704;BME280;21820;51.112;13.762;2022-12-29T07:35:06;98682.47;;;18.76;66.76
35704;BME280;21820;51.112;13.762;2022-12-29T07:37:32;98684.66;;;18.81;67.31
35704;BME280;21820;51.112;13.762;2022-12-29T07:39:58;98693.28;;;18.81;66.89
35704;BME280;21820;51.112;13.762;2022-12-29T07:42:23;98668.22;;;18.80;66.27
35704;BME280;21820;51.112;13.762;2022-12-29T07:44:48;98647.41;;;18.80;67.09
35704;BME280;21820;51.112;13.762;2022-12-29T07:47:14;98652.75;;;18.79;66.81
35704;BME280;21820;51.112;13.762;2022-12-29T07:49:39;98662.03;;;18.81;66.97
35704;BME280;21820;51.112;13.762;2022-12-29T07:52:04;98664.66;;;18.81;66.44
35704;BME280;21820;51.112;13.762;2022-12-29T07:54:30;98667.09;;;18.83;66.82
35704;BME280;21820;51.112;13.762;2022-12-29T07:56:55;98667.94;;;18.83;66.50
35704;BME280;21820;51.112;13.762;2022-12-29T07:59:20;98668.91;;;18.82;66.74
35704;BME280;21820;51.112;13.762;2022-12-29T08:01:46;98664.66;;;18.81;66.80
35704;BME280;21820;51.112;13.762;2022-12-29T08:04:11;98667.25;;;18.81;66.70
35704;BME280;21820;51.112;13.762;2022-12-29T08:06:37;98668.22;;;18.80;66.31
35704;BME280;21820;51.112;13.762;2022-12-29T08:09:03;98673.28;;;18.82;66.52
35704;BME280;21820;51.112;13.762;2022-12-29T08:11:28;98681.94;;;18.82;66.98
35704;BME280;21820;51.112;13.762;2022-12-29T08:13:54;98687.13;;;18.82;66.07
35704;BME280;21820;51.112;13.762;2022-12-29T08:16:19;98692.34;;;18.82;66.14
35704;BME280;21820;51.112;13.762;2022-12-29T08:18:44;98688.22;;;18.80;66.39
35704;BME280;21820;51.112;13.762;2022-12-29T08:21:10;98689.84;;;18.81;66.47
35704;BME280;21820;51.112;13.762;2022-12-29T08:23:36;98695.06;;;18.81;66.97
35704;BME280;21820;51.112;13.762;2022-12-29T08:26:03;98677.03;;;18.70;66.44
35704;BME280;21820;51.112;13.762;2022-12-29T08:28:30;98704.69;;;18.80;66.57
35704;BME280;21820;51.112;13.762;2022-12-29T08:31:00;98709.06;;;18.80;66.81
35704;BME280;21820;51.112;13.762;2022-12-29T08:33:26;98702.06;;;18.80;66.26
35704;BME280;21820;51.112;13.762;2022-12-29T08:35:51;98694.25;;;18.80;66.59
35704;BME280;21820;51.112;13.762;2022-12-29T08:38:17;98675.53;;;18.67;66.18
35704;BME280;21820;51.112;13.762;2022-12-29T08:40:43;98692.59;;;18.79;66.71
35704;BME280;21820;51.112;13.762;2022-12-29T08:43:08;98703.03;;;18.79;66.57
35704;BME280;21820;51.112;13.762;2022-12-29T08:45:34;98720.31;;;18.80;66.37
35704;BME280;21820;51.112;13.762;2022-12-29T08:47:59;98717.00;;;18.78;66.20
35704;BME280;21820;51.112;13.762;2022-12-29T08:50:24;98722.91;;;18.80;66.38
35704;BME280;21820;51.112;13.762;2022-12-29T08:52:50;98726.63;;;18.68;65.33
35704;BME280;21820;51.112;13.762;2022-12-29T08:55:15;98711.09;;;18.49;66.02
35704;BME280;21820;51.112;13.762;2022-12-29T08:57:41;98701.50;;;18.31;65.85
35704;BME280;21820;51.112;13.762;2022-12-29T09:00:07;98718.22;;;18.47;66.46
35704;BME280;21820;51.112;13.762;2022-12-29T09:02:32;98711.09;;;18.49;65.73
35704;BME280;21820;51.112;13.762;2022-12-29T09:04:58;98707.66;;;18.49;65.69
35704;BME280;21820;51.112;13.762;2022-12-29T09:07:24;98712.16;;;18.56;66.05
35704;BME280;21820;51.112;13.762;2022-12-29T09:09:49;98709.28;;;18.59;65.22
35704;BME280;21820;51.112;13.762;2022-12-29T09:12:17;98716.22;;;18.68;64.49
35704;BME280;21820;51.112;13.762;2022-12-29T09:14:42;98715.25;;;18.69;65.01
35704;BME280;21820;51.112;13.762;2022-12-29T09:17:09;98714.31;;;18.70;64.58
35704;BME280;21820;51.112;13.762;2022-12-29T09:19:53;98708.81;;;18.73;64.27
35704;BME280;21820;51.112;13.762;2022-12-29T09:22:19;98707.97;;;18.73;65.02
35704;BME280;21820;51.112;13.762;2022-12-29T09:24:44;98705.53;;;18.71;64.71
35704;BME280;21820;51.112;13.762;2022-12-29T09:27:09;98706.63;;;18.69;65.60
35704;BME280;21820;51.112;13.762;2022-12-29T09:29:35;98712.94;;;18.66;64.78
35704;BME280;21820;51.112;13.762;2022-12-29T09:32:00;98703.34;;;18.67;65.31
35704;BME280;21820;51.112;13.762;2022-12-29T09:34:25;98700.91;;;18.65;65.76
35704;BME280;21820;51.112;13.762;2022-12-29T09:36:51;98698.59;;;18.62;65.37
35704;BME280;21820;51.112;13.762;2022-12-29T09:39:16;98701.97;;;18.63;66.57
35704;BME280;21820;51.112;13.762;2022-12-29T09:41:49;98700.06;;;18.65;66.40
35704;BME280;21820;51.112;13.762;2022-12-29T09:44:26;98690.53;;;18.56;66.65
35704;BME280;21820;51.112;13.762;2022-12-29T09:46:54;98697.03;;;18.69;67.52
35704;BME280;21820;51.112;13.762;2022-12-29T09:52:01;98706.50;;;18.70;67.07
35704;BME280;21820;51.112;13.762;2022-12-29T09:54:51;98696.22;;;18.69;66.94
35704;BME280;21820;51.112;13.762;2022-12-29T09:57:43;98699.06;;;18.75;67.02
35704;BME280;21820;51.112;13.762;2022-12-29T10:00:16;98692.91;;;18.76;67.02
35704;BME280;21820;51.112;13.762;2022-12-29T10:02:50;98698.09;;;18.76;67.16
35704;BME280;21820;51.112;13.762;2022-12-29T10:08:15;98686.59;;;18.79;66.97
35704;BME280;21820;51.112;13.762;2022-12-29T10:13:51;98669.31;;;18.78;66.93
35704;BME280;21820;51.112;13.762;2022-12-29T10:24:10;98682.88;;;18.81;66.87
35704;BME280;21820;51.112;13.762;2022-12-29T10:26:42;98675.34;;;18.78;66.86
35704;BME280;21820;51.112;13.762;2022-12-29T10:29:44;98682.47;;;18.76;66.68
35704;BME280;21820;51.112;13.762;2022-12-29T10:32:27;98685.91;;;18.77;67.05
35704;BME280;21820;51.112;13.762;2022-12-29T10:35:03;98680.84;;;18.75;67.19
35704;BME280;21820;51.112;13.762;2022-12-29T10:40:58;98670.44;;;18.75;67.50
35704;BME280;21820;51.112;13.762;2022-12-29T10:43:33;98670.72;;;18.72;66.57
35704;BME280;21820;51.112;13.762;2022-12-29T10:46:09;98677.72;;;18.72;67.63
35704;BME280;21820;51.112;13.762;2022-12-29T10:48:35;98667.75;;;18.67;66.97
35704;BME280;21820;51.112;13.762;2022-12-29T10:51:04;98669.38;;;18.68;66.91
35704;BME280;21820;51.112;13.762;2022-12-29T10:53:41;98655.38;;;18.69;67.16
35704;BME280;21820;51.112;13.762;2022-12-29T10:59:19;98648.00;;;18.65;67.64
35704;BME280;21820;51.112;13.762;2022-12-29T11:04:46;98642.25;;;18.61;67.78
35704;BME280;21820;51.112;13.762;2022-12-29T11:07:17;98637.34;;;18.58;67.54
35704;BME280;21820;51.112;13.762;2022-12-29T11:09:44;98631.31;;;18.58;67.09
35704;BME280;21820;51.112;13.762;2022-12-29T11:12:25;98632.81;;;18.60;67.25
35704;BME280;21820;51.112;13.762;2022-12-29T11:17:27;98629.94;;;18.63;67.28
35704;BME280;21820;51.112;13.762;2022-12-29T11:19:52;98623.88;;;18.63;67.30
35704;BME280;21820;51.112;13.762;2022-12-29T11:22:22;98630.75;;;18.64;67.11
35704;BME280;21820;51.112;13.762;2022-12-29T11:24:50;98624.44;;;18.66;67.09
35704;BME280;21820;51.112;13.762;2022-12-29T11:27:23;98638.13;;;18.68;67.63
35704;BME280;21820;51.112;13.762;2022-12-29T11:29:51;98614.06;;;18.57;66.91
35704;BME280;21820;51.112;13.762;2022-12-29T11:34:44;98632.63;;;18.71;67.05
35704;BME280;21820;51.112;13.762;2022-12-29T11:37:18;98638.66;;;18.72;67.17
35704;BME280;21820;51.112;13.762;2022-12-29T11:42:18;98631.81;;;18.71;67.10
35704;BME280;21820;51.112;13.762;2022-12-29T11:44:49;98633.59;;;18.70;67.34
35704;BME280;21820;51.112;13.762;2022-12-29T11:47:30;98624.66;;;18.73;66.80
35704;BME280;21820;51.112;13.762;2022-12-29T11:50:00;98631.69;;;18.72;66.91
35704;BME280;21820;51.112;13.762;2022-12-29T11:52:30;98620.88;;;18.67;67.24
35704;BME280;21820;51.112;13.762;2022-12-29T11:54:59;98640.28;;;18.73;67.03
35704;BME280;21820;51.112;13.762;2022-12-29T11:57:26;98636.88;;;18.72;66.45
35704;BME280;21820;51.112;13.762;2022-12-29T11:59:53;98632.47;;;18.73;66.46
35704;BME280;21820;51.112;13.762;2022-12-29T12:02:35;98637.84;;;18.71;66.12
35704;BME280;21820;51.112;13.762;2022-12-29T12:05:09;98625.50;;;18.73;67.40
35704;BME280;21820;51.112;13.762;2022-12-29T12:07:41;98631.69;;;18.72;67.12
35704;BME280;21820;51.112;13.762;2022-12-29T12:10:15;98635.09;;;18.73;66.85
35704;BME280;21820;51.112;13.762;2022-12-29T12:12:47;98631.00;;;18.70;66.93
35704;BME280;21820;51.112;13.762;2022-12-29T12:15:39;98631.00;;;18.70;67.14
35704;BME280;21820;51.112;13.762;2022-12-29T12:20:54;98628.41;;;18.70;66.78
35704;BME280;21820;51.112;13.762;2022-12-29T12:26:12;98613.72;;;18.69;66.92
35704;BME280;21820;51.112;13.762;2022-12-29T12:34:12;98609.34;;;18.70;66.40
35704;BME280;21820;51.112;13.762;2022-12-29T12:36:54;98608.50;;;18.69;67.15
35704;BME280;21820;51.112;13.762;2022-12-29T12:52:36;98591.66;;;18.73;66.85
35704;BME280;21820;51.112;13.762;2022-12-29T13:00:25;98585.38;;;18.66;66.61
35704;BME280;21820;51.112;13.762;2022-12-29T13:03:10;98577.56;;;18.66;66.25
35704;BME280;21820;51.112;13.762;2022-12-29T13:05:54;98568.03;;;18.57;66.87
35704;BME280;21820;51.112;13.762;2022-12-29T13:30:34;98602.28;;;18.62;66.22
35704;BME280;21820;51.112;13.762;2022-12-29T13:38:05;98591.75;;;18.54;66.26
35704;BME280;21820;51.112;13.762;2022-12-29T13:40:36;98608.28;;;18.63;66.25
35704;BME280;21820;51.112;13.762;2022-12-29T13:43:04;98608.41;;;18.61;66.73
35704;BME280;21820;51.112;13.762;2022-12-29T13:45:31;98603.06;;;18.63;66.14
35704;BME280;21820;51.112;13.762;2022-12-29T13:50:29;98607.47;;;18.62;66.63
35704;BME280;21820;51.112;13.762;2022-12-29T13:53:34;98602.28;;;18.62;66.65
35704;BME280;21820;51.112;13.762;2022-12-29T13:58:45;98612.69;;;18.62;66.61
35704;BME280;21820;51.112;13.762;2022-12-29T14:01:28;98614.31;;;18.63;66.21
35704;BME280;21820;51.112;13.762;2022-12-29T14:03:57;98628.31;;;18.62;66.00
35704;BME280;21820;51.112;13.762;2022-12-29T14:06:28;98615.28;;;18.62;66.27
35704;BME280;21820;51.112;13.762;2022-12-29T14:08:57;98615.44;;;18.61;66.62
35704;BME280;21820;51.112;13.762;2022-12-29T14:11:30;98621.44;;;18.61;66.39
35704;BME280;21820;51.112;13.762;2022-12-29T14:13:56;98621.44;;;18.61;66.04
35704;BME280;21820;51.112;13.762;2022-12-29T14:16:28;98622.25;;;18.62;66.44
35704;BME280;21820;51.112;13.762;2022-12-29T14:18:55;98625.00;;;18.60;66.27
35704;BME280;21820;51.112;13.762;2022-12-29T14:21:24;98622.41;;;18.60;66.35
35704;BME280;21820;51.112;13.762;2022-12-29T14:26:45;98619.81;;;18.60;66.47
35704;BME280;21820;51.112;13.762;2022-12-29T14:31:49;98632.81;;;18.60;66.16
35704;BME280;21820;51.112;13.762;2022-12-29T14:34:22;98626.69;;;18.52;66.08
35704;BME280;21820;51.112;13.762;2022-12-29T14:39:37;98636.09;;;18.62;66.40
35704;BME280;21820;51.112;13.762;2022-12-29T14:44:57;98646.66;;;18.61;66.33
35704;BME280;21820;51.112;13.762;2022-12-29T14:47:34;98637.34;;;18.58;66.55
35704;BME280;21820;51.112;13.762;2022-12-29T14:50:05;98641.59;;;18.59;66.35
35704;BME280;21820;51.112;13.762;2022-12-29T14:52:32;98632.97;;;18.59;66.26
35704;BME280;21820;51.112;13.762;2022-12-29T14:57:35;98642.56;;;18.58;66.26
35704;BME280;21820;51.112;13.762;2022-12-29T15:02:45;98649.41;;;18.59;66.41
35704;BME280;21820;51.112;13.762;2022-12-29T15:05:34;98651.03;;;18.60;66.42
35704;BME280;21820;51.112;13.762;2022-12-29T15:08:00;98657.22;;;18.59;65.91
35704;BME280;21820;51.112;13.762;2022-12-29T15:10:34;98655.56;;;18.58;66.45
35704;BME280;21820;51.112;13.762;2022-12-29T15:13:05;98658.16;;;18.58;66.27
35704;BME280;21820;51.112;13.762;2022-12-29T15:15:38;98663.38;;;18.58;66.29
35704;BME280;21820;51.112;13.762;2022-12-29T15:18:24;98671.88;;;18.60;66.27
35704;BME280;21820;51.112;13.762;2022-12-29T15:20:52;98677.38;;;18.57;66.43
35704;BME280;21820;51.112;13.762;2022-12-29T15:23:18;98681.59;;;18.58;66.40
35704;BME280;21820;51.112;13.762;2022-12-29T15:25:52;98688.56;;;18.58;66.20
35704;BME280;21820;51.112;13.762;2022-12-29T15:28:20;98699.81;;;18.58;65.87
35704;BME280;21820;51.112;13.762;2022-12-29T15:31:01;98690.22;;;18.59;66.64
35704;BME280;21820;51.112;13.762;2022-12-29T15:33:27;98692.16;;;18.57;66.23